createdAt,value
2017-07-14T00:01:08.180Z,12.50
2017-07-14T00:03:35.799Z,11.23
2017-07-14T00:06:03.268Z,14.47
2017-07-14T00:08:30.736Z,10.77
2017-07-14T00:10:58.235Z,13.63
2017-07-14T00:13:25.889Z,10.53
2017-07-14T00:15:53.402Z,12.10
2017-07-14T00:18:21.099Z,9.77
2017-07-14T00:20:50.467Z,11.60
2017-07-14T00:23:19.167Z,7.63
2017-07-14T00:25:53.460Z,13.47
2017-07-14T00:28:20.906Z,11.13
2017-07-14T00:30:50.171Z,10.50
2017-07-14T00:33:17.632Z,10.23
2017-07-14T00:35:45.102Z,10.10
2017-07-14T00:38:12.752Z,15.90
2017-07-14T00:40:40.260Z,9.93
2017-07-14T00:43:08.756Z,11.70
2017-07-14T00:45:36.439Z,10.70
2017-07-14T00:48:04.016Z,10.63
2017-07-14T00:50:31.501Z,9.43
2017-07-14T00:52:58.949Z,12.00
2017-07-14T00:55:26.443Z,13.83
2017-07-14T00:57:54.816Z,15.17
2017-07-14T01:00:22.288Z,12.00
2017-07-14T01:02:49.936Z,15.47
2017-07-14T01:05:17.419Z,10.97
2017-07-14T01:07:44.907Z,14.77
2017-07-14T01:10:12.360Z,11.60
2017-07-14T01:12:39.855Z,14.70
2017-07-14T01:15:07.493Z,10.47
2017-07-14T01:17:35.057Z,13.90
2017-07-14T01:20:02.612Z,11.90
2017-07-14T01:22:31.381Z,14.83
2017-07-14T01:25:04.306Z,11.80
2017-07-14T01:27:31.918Z,11.23
2017-07-14T01:30:01.192Z,12.60
2017-07-14T01:32:28.715Z,12.30
2017-07-14T01:34:57.067Z,15.63
2017-07-14T01:37:24.636Z,11.57
2017-07-14T01:39:52.144Z,13.80
2017-07-14T01:42:19.615Z,13.73
2017-07-14T01:44:47.132Z,12.57
2017-07-14T01:47:14.733Z,16.13
2017-07-14T01:49:42.239Z,14.03
2017-07-14T01:52:09.792Z,14.87
2017-07-14T01:54:37.249Z,15.43
2017-07-14T01:57:04.700Z,17.97
2017-07-14T01:59:32.316Z,15.90
2017-07-14T02:01:59.851Z,12.10
2017-07-14T02:04:27.375Z,15.20
2017-07-14T02:06:54.820Z,13.67
2017-07-14T02:09:22.459Z,19.63
2017-07-14T02:11:49.931Z,15.47
2017-07-14T02:14:17.371Z,15.17
2017-07-14T02:16:44.870Z,18.67
2017-07-14T02:19:12.307Z,14.70
2017-07-14T02:21:39.862Z,17.53
2017-07-14T02:24:07.347Z,13.93
2017-07-14T02:26:34.864Z,14.60
2017-07-14T02:29:02.309Z,13.40
2017-07-14T02:31:29.790Z,12.33
2017-07-14T02:33:57.235Z,21.30
2017-07-14T02:36:25.271Z,17.70
2017-07-14T02:38:53.511Z,18.03
2017-07-14T02:41:20.958Z,15.70
2017-07-14T02:43:49.531Z,17.50
2017-07-14T02:46:17.011Z,19.23
2017-07-14T02:48:44.551Z,17.00
2017-07-14T02:51:12.842Z,15.27
2017-07-14T02:53:40.413Z,21.17
2017-07-14T02:56:07.889Z,18.13
2017-07-14T02:58:36.536Z,16.17
2017-07-14T03:01:04.474Z,18.33
2017-07-14T03:03:32.063Z,14.63
2017-07-14T03:05:59.524Z,18.40
2017-07-14T03:08:27.061Z,15.60
2017-07-14T03:10:54.581Z,16.57
2017-07-14T03:13:22.072Z,14.03
2017-07-14T03:15:49.580Z,15.40
2017-07-14T03:18:17.040Z,17.80
2017-07-14T03:20:44.505Z,17.07
2017-07-14T03:23:12.791Z,18.57
2017-07-14T03:25:40.224Z,17.67
2017-07-14T03:28:07.701Z,17.23
2017-07-14T03:30:35.174Z,17.33
2017-07-14T03:33:02.618Z,21.30
2017-07-14T03:35:30.073Z,31.43
2017-07-14T03:37:57.557Z,17.47
2017-07-14T03:40:25.000Z,22.50
2017-07-14T03:42:52.448Z,16.97
2017-07-14T03:45:20.046Z,20.47
2017-07-14T03:47:47.480Z,16.90
2017-07-14T03:50:14.944Z,17.53
2017-07-14T03:52:42.624Z,21.87
2017-07-14T03:55:10.118Z,20.67
2017-07-14T03:57:37.676Z,17.70
2017-07-14T04:00:05.192Z,16.30
2017-07-14T04:02:32.771Z,17.63
2017-07-14T04:05:00.309Z,17.33
2017-07-14T04:07:27.829Z,18.60
2017-07-14T04:09:55.404Z,20.83
2017-07-14T04:12:22.884Z,19.70
2017-07-14T04:14:51.644Z,19.13
2017-07-14T04:17:19.112Z,24.20
2017-07-14T04:19:46.636Z,22.33
2017-07-14T04:22:14.977Z,16.33
2017-07-14T04:24:42.433Z,19.90
2017-07-14T04:27:09.926Z,17.10
2017-07-14T04:29:37.428Z,18.97
2017-07-14T04:32:04.885Z,16.87
2017-07-14T04:34:32.355Z,18.97
2017-07-14T04:37:00.728Z,17.50
2017-07-14T04:39:28.192Z,17.30
2017-07-14T04:41:56.801Z,14.17
2017-07-14T04:44:24.398Z,18.30
2017-07-14T04:46:51.842Z,17.20
2017-07-14T04:49:19.297Z,16.27
2017-07-14T04:51:47.010Z,16.17
2017-07-14T04:54:14.907Z,17.43
2017-07-14T04:56:42.412Z,16.80
2017-07-14T04:59:09.923Z,20.60
2017-07-14T05:01:37.479Z,17.17
2017-07-14T05:04:05.011Z,16.70
2017-07-14T05:06:32.612Z,22.30
2017-07-14T05:09:00.088Z,14.00
2017-07-14T05:11:28.485Z,13.17
2017-07-14T05:13:56.052Z,13.93
2017-07-14T05:16:23.648Z,17.80
2017-07-14T05:18:51.197Z,14.30
2017-07-14T05:21:18.764Z,15.63
2017-07-14T05:23:46.356Z,16.23
2017-07-14T05:26:13.853Z,13.33
2017-07-14T05:28:41.482Z,14.97
2017-07-14T05:31:08.967Z,14.60
2017-07-14T05:33:37.250Z,17.27
2017-07-14T05:36:05.127Z,14.23
2017-07-14T05:38:32.807Z,12.67
2017-07-14T05:41:00.357Z,15.13
2017-07-14T05:43:28.949Z,14.90
2017-07-14T05:45:56.588Z,14.50
2017-07-14T05:48:24.173Z,12.10
2017-07-14T05:50:52.498Z,16.70
2017-07-14T05:53:20.009Z,13.70
2017-07-14T05:55:47.631Z,12.03
2017-07-14T05:58:15.221Z,12.57
2017-07-14T06:00:42.714Z,19.10
2017-07-14T06:03:11.645Z,14.67
2017-07-14T06:05:39.261Z,11.97
2017-07-14T06:08:06.725Z,12.30
2017-07-14T06:10:37.600Z,12.23
2017-07-14T06:13:05.190Z,12.30
2017-07-14T06:15:32.664Z,13.77
2017-07-14T06:18:00.280Z,14.30
2017-07-14T06:20:28.718Z,14.17
2017-07-14T06:22:56.232Z,16.53
2017-07-14T06:25:24.461Z,17.40
2017-07-14T06:27:53.018Z,12.83
2017-07-14T06:30:22.469Z,19.00
2017-07-14T06:32:51.605Z,17.97
2017-07-14T06:35:19.537Z,19.50
2017-07-14T06:37:47.111Z,19.63
2017-07-14T06:40:14.704Z,14.10
2017-07-14T06:42:43.150Z,15.63
2017-07-14T06:45:10.634Z,14.87
2017-07-14T06:47:39.246Z,17.50
2017-07-14T06:50:07.575Z,19.70
2017-07-14T06:52:41.246Z,17.10
2017-07-14T06:55:10.706Z,19.00
2017-07-14T06:57:38.433Z,17.20
2017-07-14T07:00:06.054Z,17.50
2017-07-14T07:02:33.709Z,19.47
2017-07-14T07:05:01.228Z,19.83
2017-07-14T07:07:29.818Z,19.60
2017-07-14T07:09:57.502Z,17.93
2017-07-14T07:12:25.208Z,16.83
2017-07-14T07:14:52.762Z,17.00
2017-07-14T07:17:20.404Z,16.40
2017-07-14T07:19:47.897Z,15.53
2017-07-14T07:22:15.394Z,14.47
2017-07-14T07:24:43.178Z,14.53
2017-07-14T07:27:10.776Z,16.73
2017-07-14T07:29:39.583Z,16.73
2017-07-14T07:32:07.155Z,19.07
2017-07-14T07:34:34.753Z,19.00
2017-07-14T07:37:02.209Z,18.03
2017-07-14T07:39:29.961Z,16.50
2017-07-14T07:41:57.852Z,17.20
2017-07-14T07:44:26.080Z,15.20
2017-07-14T07:46:59.470Z,11.80
2017-07-14T07:49:30.702Z,20.00
2017-07-14T07:52:00.115Z,10.57
2017-07-14T07:54:27.706Z,13.63
2017-07-14T07:56:55.354Z,13.20
2017-07-14T07:59:23.762Z,15.13
2017-07-14T08:01:51.330Z,14.57
2017-07-14T08:04:19.589Z,16.33
2017-07-14T08:06:47.214Z,11.80
2017-07-14T08:09:15.632Z,13.70
2017-07-14T08:11:44.807Z,12.60
2017-07-14T08:14:12.413Z,10.77
2017-07-14T08:16:39.963Z,9.80
2017-07-14T08:19:11.013Z,10.03
2017-07-14T08:21:38.637Z,11.73
2017-07-14T08:24:06.264Z,10.67
2017-07-14T08:26:34.563Z,8.83
2017-07-14T08:29:03.321Z,13.87
2017-07-14T08:31:33.366Z,14.87
2017-07-14T08:34:01.887Z,13.53
2017-07-14T08:36:33.319Z,10.27
2017-07-14T08:39:00.952Z,12.33
2017-07-14T08:41:28.573Z,10.67
2017-07-14T08:43:59.277Z,10.20
2017-07-14T08:49:00.205Z,9.73
2017-07-14T08:51:28.710Z,12.13
2017-07-14T08:53:56.785Z,8.47
2017-07-14T08:56:24.381Z,12.50
2017-07-14T08:58:52.670Z,8.97
2017-07-14T09:01:21.714Z,12.80
2017-07-14T09:03:50.259Z,11.13
2017-07-14T09:06:17.912Z,10.10
2017-07-14T09:08:45.562Z,10.93
2017-07-14T09:11:13.745Z,9.73
2017-07-14T09:13:43.345Z,9.60
2017-07-14T09:16:11.018Z,11.93
2017-07-14T09:18:38.533Z,8.90
2017-07-14T09:21:06.229Z,8.73
2017-07-14T09:23:35.288Z,6.30
2017-07-14T09:26:03.131Z,9.13
2017-07-14T09:28:32.583Z,7.57
2017-07-14T09:31:01.854Z,9.90
2017-07-14T09:33:29.967Z,7.60
2017-07-14T09:35:58.635Z,7.30
2017-07-14T09:38:26.399Z,8.00
2017-07-14T09:40:54.194Z,6.50
2017-07-14T09:43:21.884Z,11.70
2017-07-14T09:45:49.614Z,9.90
2017-07-14T09:48:17.229Z,8.63
2017-07-14T09:50:44.880Z,8.40
2017-07-14T09:53:12.980Z,7.90
2017-07-14T09:55:41.464Z,8.17
2017-07-14T09:58:08.991Z,7.07
2017-07-14T10:00:36.560Z,6.73
2017-07-14T10:03:04.349Z,9.63
2017-07-14T10:05:31.908Z,8.83
2017-07-14T10:10:58.125Z,6.97
2017-07-14T10:13:30.542Z,5.80
2017-07-14T10:15:59.701Z,8.57
2017-07-14T10:18:27.514Z,5.10
2017-07-14T10:20:57.162Z,7.37
2017-07-14T10:23:24.858Z,6.57
2017-07-14T10:25:52.461Z,5.60
2017-07-14T10:28:20.256Z,13.27
2017-07-14T10:30:48.122Z,6.07
2017-07-14T10:33:17.192Z,8.93
2017-07-14T10:35:45.172Z,10.93
2017-07-14T10:38:14.964Z,8.17
2017-07-14T10:40:42.637Z,5.67
2017-07-14T10:43:10.517Z,9.27
2017-07-14T10:45:38.685Z,8.60
2017-07-14T10:48:06.317Z,6.53
2017-07-14T10:50:34.038Z,8.47
2017-07-14T10:53:01.721Z,7.13
2017-07-14T10:55:29.716Z,9.17
2017-07-14T10:57:58.252Z,8.97
2017-07-14T11:00:25.913Z,7.30
2017-07-14T11:02:53.506Z,8.87
2017-07-14T11:05:21.212Z,7.47
2017-07-14T11:07:49.503Z,8.53
2017-07-14T11:10:17.143Z,6.60
2017-07-14T11:12:44.854Z,7.30
2017-07-14T11:15:12.384Z,8.40
2017-07-14T11:17:39.872Z,6.97
2017-07-14T11:20:07.514Z,6.43
2017-07-14T11:22:35.068Z,4.73
2017-07-14T11:25:03.374Z,4.80
2017-07-14T11:27:30.957Z,7.77
2017-07-14T11:29:58.537Z,7.03
2017-07-14T11:32:26.077Z,6.00
2017-07-14T11:34:53.631Z,7.00
2017-07-14T11:37:24.036Z,6.00
2017-07-14T11:39:51.569Z,4.53
2017-07-14T11:42:19.237Z,6.17
2017-07-14T11:44:46.959Z,5.10
2017-07-14T11:47:14.628Z,4.10
2017-07-14T11:49:42.358Z,6.87
2017-07-14T11:52:09.888Z,6.10
2017-07-14T11:54:37.704Z,5.00
2017-07-14T11:57:06.812Z,4.50
2017-07-14T11:59:34.961Z,10.47
2017-07-14T12:02:02.973Z,4.80
2017-07-14T12:04:31.857Z,8.37
2017-07-14T12:06:59.384Z,8.90
2017-07-14T12:09:27.181Z,7.60
2017-07-14T12:11:54.764Z,6.30
2017-07-14T12:14:22.491Z,8.47
2017-07-14T12:16:50.145Z,7.37
2017-07-14T12:19:18.421Z,7.13
2017-07-14T12:21:47.307Z,7.83
2017-07-14T12:24:14.900Z,9.70
2017-07-14T12:26:43.400Z,9.80
2017-07-14T12:29:12.118Z,6.97
2017-07-14T12:31:40.592Z,14.03
2017-07-14T12:34:08.336Z,13.80
2017-07-14T12:36:36.160Z,10.90
2017-07-14T12:39:03.812Z,10.60
2017-07-14T12:41:31.577Z,8.83
2017-07-14T12:43:59.267Z,13.73
2017-07-14T12:46:26.797Z,7.53
2017-07-14T12:48:54.525Z,12.70
2017-07-14T12:51:22.028Z,9.83
2017-07-14T12:53:49.613Z,8.90
2017-07-14T12:56:17.088Z,12.93
2017-07-14T12:58:45.369Z,10.07
2017-07-14T13:01:12.874Z,10.30
2017-07-14T13:03:40.441Z,9.50
2017-07-14T13:06:08.075Z,9.60
2017-07-14T13:08:35.628Z,11.87
2017-07-14T13:11:03.342Z,10.00
2017-07-14T13:13:31.934Z,9.70
2017-07-14T13:15:59.455Z,12.70
2017-07-14T13:18:26.999Z,8.93
2017-07-14T13:20:54.546Z,12.63
2017-07-14T13:23:22.162Z,10.43
2017-07-14T13:25:49.691Z,10.00
2017-07-14T13:28:17.473Z,8.23
2017-07-14T13:30:44.958Z,7.93
2017-07-14T13:33:12.422Z,8.80
2017-07-14T13:35:40.036Z,11.20
2017-07-14T13:38:07.517Z,13.10
2017-07-14T13:40:35.082Z,11.70
2017-07-14T13:43:02.738Z,10.00
2017-07-14T13:45:30.197Z,12.60
2017-07-14T13:47:57.884Z,25.03
2017-07-14T13:50:25.549Z,17.60
2017-07-14T13:52:53.555Z,17.43
2017-07-14T13:55:21.028Z,19.30
2017-07-14T13:57:48.668Z,18.40
2017-07-14T14:00:16.638Z,19.77
2017-07-14T14:02:44.329Z,26.47
2017-07-14T14:05:11.908Z,18.50
2017-07-14T14:07:40.007Z,22.27
2017-07-14T14:10:07.653Z,27.10
2017-07-14T14:12:35.393Z,21.87
2017-07-14T14:15:02.943Z,22.47
2017-07-14T14:17:30.700Z,21.27
2017-07-14T14:19:58.183Z,25.90
2017-07-14T14:22:28.479Z,22.80
2017-07-14T14:24:56.127Z,22.27
2017-07-14T14:27:23.713Z,26.40
2017-07-14T14:29:51.220Z,24.33
2017-07-14T14:32:19.030Z,25.43
2017-07-14T14:34:46.660Z,26.47
2017-07-14T14:37:14.396Z,28.77
2017-07-14T14:39:42.141Z,34.03
2017-07-14T14:42:10.348Z,30.37
2017-07-14T14:44:38.109Z,22.20
2017-07-14T14:47:06.526Z,20.47
2017-07-14T14:49:34.091Z,23.80
2017-07-14T14:52:01.586Z,32.67
2017-07-14T14:54:29.916Z,23.27
2017-07-14T14:56:57.414Z,22.80
2017-07-14T14:59:26.107Z,16.90
2017-07-14T15:01:53.638Z,13.70
2017-07-14T15:04:21.457Z,12.20
2017-07-14T15:06:49.165Z,16.63
2017-07-14T15:09:16.747Z,15.07
2017-07-14T15:11:44.529Z,12.70
2017-07-14T15:14:12.076Z,11.63
2017-07-14T15:16:42.900Z,11.80
2017-07-14T15:19:10.502Z,12.83
2017-07-14T15:21:38.153Z,14.33
2017-07-14T15:24:05.663Z,14.60
2017-07-14T15:26:33.225Z,17.20
2017-07-14T15:29:04.539Z,20.83
2017-07-14T15:31:32.173Z,18.93
2017-07-14T15:33:59.744Z,15.73
2017-07-14T15:36:27.346Z,17.60
2017-07-14T15:38:54.996Z,17.90
2017-07-14T15:41:22.568Z,17.63
2017-07-14T15:43:50.123Z,20.30
2017-07-14T15:46:17.802Z,20.40
2017-07-14T15:48:45.518Z,23.60
2017-07-14T15:51:13.848Z,21.43
2017-07-14T15:53:41.559Z,24.70
2017-07-14T15:56:09.105Z,27.23
2017-07-14T15:58:36.980Z,22.80
2017-07-14T16:01:06.344Z,29.03
2017-07-14T16:03:33.931Z,15.97
2017-07-14T16:06:01.631Z,13.97
2017-07-14T16:08:29.138Z,10.00
2017-07-14T16:10:57.325Z,9.80
2017-07-14T16:13:24.801Z,9.67
2017-07-14T16:15:52.463Z,10.03
2017-07-14T16:18:20.134Z,11.80
2017-07-14T16:20:47.684Z,12.17
2017-07-14T16:23:15.332Z,14.47
2017-07-14T16:25:44.720Z,17.17
2017-07-14T16:28:13.283Z,9.77
2017-07-14T16:30:40.913Z,10.53
2017-07-14T16:33:10.783Z,9.60
2017-07-14T16:35:39.344Z,9.73
2017-07-14T16:38:06.845Z,14.40
2017-07-14T16:40:36.431Z,16.60
2017-07-14T16:43:06.430Z,20.43
2017-07-14T16:45:34.037Z,16.20
2017-07-14T16:48:04.506Z,20.77
2017-07-14T16:50:32.401Z,10.77
2017-07-14T16:53:02.708Z,10.77
2017-07-14T16:55:32.488Z,13.83
2017-07-14T16:58:01.515Z,10.60
2017-07-14T17:00:29.169Z,11.50
2017-07-14T17:02:58.691Z,10.30
2017-07-14T17:05:31.699Z,8.97
2017-07-14T17:07:59.463Z,10.70
2017-07-14T17:13:23.829Z,9.87
2017-07-14T17:21:36.693Z,6.60
2017-07-14T17:26:55.746Z,8.10
2017-07-14T17:29:25.020Z,7.80
2017-07-14T17:39:40.565Z,8.77
2017-07-14T17:59:17.857Z,6.87
2017-07-14T18:02:07.000Z,7.53
2017-07-14T18:09:47.752Z,13.33
2017-07-14T18:12:17.703Z,12.13
2017-07-14T18:14:45.335Z,13.47
2017-07-14T18:17:22.556Z,14.13
2017-07-14T18:20:06.593Z,9.63
2017-07-14T18:22:35.079Z,11.63
2017-07-14T18:25:28.201Z,7.27
2017-07-14T18:28:03.086Z,6.50
2017-07-14T18:37:36.333Z,6.93
2017-07-14T18:40:19.759Z,8.00
2017-07-14T18:43:09.349Z,8.53
2017-07-14T18:45:37.134Z,10.53
2017-07-14T18:48:07.991Z,11.80
2017-07-14T18:50:35.826Z,11.40
2017-07-14T18:53:05.222Z,9.33
2017-07-14T18:55:36.090Z,7.57
2017-07-14T18:58:05.601Z,8.10
2017-07-14T19:04:12.893Z,7.47
2017-07-14T19:06:42.382Z,5.30
2017-07-14T19:09:09.860Z,7.77
2017-07-14T19:11:38.233Z,10.27
2017-07-14T19:14:06.613Z,8.40
2017-07-14T19:16:35.491Z,6.63
2017-07-14T19:19:03.106Z,5.70
2017-07-14T19:21:30.760Z,5.87
2017-07-14T19:24:00.847Z,9.57
2017-07-14T19:26:30.746Z,8.70
2017-07-14T19:29:00.456Z,14.00
2017-07-14T19:31:28.866Z,7.23
2017-07-14T19:33:56.466Z,14.07
2017-07-14T19:36:32.948Z,12.00
2017-07-14T19:39:13.141Z,7.83
2017-07-14T19:41:43.006Z,7.90
2017-07-14T19:44:14.061Z,7.20
2017-07-14T19:46:42.749Z,11.43
2017-07-14T19:49:10.257Z,9.73
2017-07-14T19:51:38.721Z,7.67
2017-07-14T19:54:10.051Z,8.97
2017-07-14T19:56:39.515Z,8.30
2017-07-14T19:59:08.115Z,7.53
2017-07-14T20:01:44.610Z,8.27
2017-07-14T20:04:14.799Z,9.23
2017-07-14T20:06:42.430Z,10.40
2017-07-14T20:09:11.219Z,6.93
2017-07-14T20:11:40.885Z,6.70
2017-07-14T20:14:08.429Z,7.97
2017-07-14T20:16:40.634Z,10.70
2017-07-14T20:19:10.341Z,9.13
2017-07-14T20:21:38.900Z,12.73
2017-07-14T20:24:09.080Z,10.00
2017-07-14T20:26:41.657Z,7.17
2017-07-14T20:29:10.752Z,13.80
2017-07-14T20:34:13.292Z,11.27
2017-07-14T20:36:43.033Z,8.67
2017-07-14T20:39:10.956Z,7.90
2017-07-14T20:41:40.667Z,8.13
2017-07-14T20:44:10.650Z,7.00
2017-07-14T20:46:41.255Z,5.23
2017-07-14T20:49:10.181Z,9.30
2017-07-14T20:51:39.846Z,6.30
2017-07-14T20:54:08.082Z,6.90
2017-07-14T20:56:37.239Z,5.07
2017-07-14T20:59:07.245Z,5.87
2017-07-14T21:01:34.797Z,7.67
2017-07-14T21:04:02.398Z,4.93
2017-07-14T21:06:30.747Z,6.87
2017-07-14T21:08:59.106Z,7.50
2017-07-14T21:11:27.006Z,7.97
2017-07-14T21:14:02.678Z,9.23
2017-07-14T21:16:30.853Z,8.10
2017-07-14T21:18:58.373Z,12.73
2017-07-14T21:21:27.241Z,9.43
2017-07-14T21:23:54.850Z,12.07
2017-07-14T21:26:23.881Z,5.23
2017-07-14T21:28:51.533Z,5.93
2017-07-14T21:31:24.260Z,4.27
2017-07-14T21:33:53.598Z,6.83
2017-07-14T21:36:23.937Z,8.87
2017-07-14T21:38:57.846Z,10.73
2017-07-14T21:41:25.697Z,7.27
2017-07-14T21:43:56.173Z,7.97
2017-07-14T21:46:23.848Z,11.13
2017-07-14T21:48:58.074Z,11.27
2017-07-14T21:51:35.783Z,9.13
2017-07-14T21:54:11.162Z,6.97
2017-07-14T21:56:40.311Z,7.10
2017-07-14T21:59:12.847Z,4.70
2017-07-14T22:01:41.854Z,6.43
2017-07-14T22:04:11.000Z,5.63
2017-07-14T22:06:38.844Z,9.00
2017-07-14T22:09:10.469Z,7.33
2017-07-14T22:11:38.585Z,7.00
2017-07-14T22:17:17.643Z,5.30
2017-07-14T22:19:45.448Z,12.30
2017-07-14T22:22:13.049Z,9.47
2017-07-14T22:24:41.725Z,6.10
2017-07-14T22:27:11.302Z,7.83
2017-07-14T22:29:39.561Z,7.03
2017-07-14T22:32:10.819Z,7.70
2017-07-14T22:34:39.689Z,7.73
2017-07-14T22:37:07.786Z,7.47
2017-07-14T22:39:47.702Z,6.10
2017-07-14T22:42:15.652Z,6.17
2017-07-14T22:44:44.845Z,12.83
2017-07-14T22:47:12.726Z,5.27
2017-07-14T22:49:41.506Z,5.80
2017-07-14T22:52:09.556Z,9.00
2017-07-14T22:54:37.170Z,5.90
2017-07-14T22:57:04.652Z,6.77
2017-07-14T22:59:37.026Z,7.70
2017-07-14T23:02:04.617Z,4.57
2017-07-14T23:04:32.875Z,7.73
2017-07-14T23:07:00.353Z,4.93
2017-07-14T23:09:27.851Z,4.83
2017-07-14T23:11:55.392Z,6.20
2017-07-14T23:14:22.870Z,7.50
2017-07-14T23:16:52.342Z,6.53
2017-07-14T23:19:19.864Z,7.00
2017-07-14T23:21:48.120Z,5.33
2017-07-14T23:24:15.649Z,5.47
2017-07-14T23:26:43.145Z,5.27
2017-07-14T23:29:10.644Z,5.60
2017-07-14T23:31:38.154Z,5.17
2017-07-14T23:34:06.534Z,6.63
2017-07-14T23:36:34.063Z,9.53
2017-07-14T23:39:01.546Z,7.90
2017-07-14T23:41:29.235Z,7.27
2017-07-14T23:43:56.720Z,5.90
2017-07-14T23:46:24.206Z,5.23
2017-07-14T23:48:51.644Z,6.87
2017-07-14T23:51:19.096Z,6.93
2017-07-14T23:53:46.717Z,5.80
2017-07-14T23:56:14.228Z,7.23
2017-07-14T23:58:41.791Z,6.17
